Listie, Pennsylvania
Current Conditions -  °F | °C
As of 4:54 PM on Wednesday 22 Oct 2014 (Local Time) from KJST Reporting Station
Overcast Overcast  
Wind Chill: 37°   Ceiling: 600
Heat Index: 44°   Visibility: 10mi
Dew Point: 40°   Wind: 14mph
Humidity: 85%   Direction: 330°NNW
Pressure: 30.09"   Gusts: NA
Location:  40.03°N, 79.01°W
Report Text: KJST 222054Z AUTO 33012KT 10SM OVC006 07/04 A3009 RMK AO2 SLP198 T00670044 58000
Loading
Personal Weather Stations






























Interactive Weather Map
Tropical Storm Tracking
New forecast layout! Learn more

10-Day Weather Forecast

Advertisements
Track Severe Weather on mobile